Shishmaref Airport
PASH : now visible

Aeroporto :











RITROVATECI SU...

 
LOGIN :

Iscrizione | Disclaimer

   EN    FR    IT 

 









Sommario :    VFR   VFR Marginale   IFR   IFR Intensivo   IFR Molto Intensivo
Visibilità : 
Base nubi : 
>= 8 km
>= 3000ft
5 / 8 km
1000 / 3000 ft
1500m / 5 km
500 / 1000 ft
800 / 1500m
200 / 500 ft
< 800m
< 200 ft
Simboli :   Temporali  Nebbia  Neve Forte  Precipitazioni Forti  Vento > 20 kt






- Altitudine del aeroporto : 12 ft
- Codice IATA : SHH


PASH - Shishmaref

ULTIMO METAR :
  • 281456Z AUTO 21005KT 9SM -SN OVC041 00/M01 A2969 RMK AO2 UPE39SNB39 SLP055 P0000 60000 T00001006 58001 FZRANO

METARs OBSOLETI :
  • 281356Z AUTO 22006KT 10SM UP OVC037 00/M01 A2970 RMK AO2 UPB02SNE02B05E18B22E36 SLP057 P0000 T00001006 FZRANO
  • 281305Z AUTO 23005KT 9SM -SN SCT027 OVC039 00/M01 A2970 RMK AO2 UPB02E05SNE02B05 P0000 FZRANO
  • 281256Z AUTO 22005KT 10SM -SN BKN027 OVC039 00/M01 A2970 RMK AO2 UPB41E50SNB50 SLP057 P0000 T00001006 FZRANO
  • 281245Z AUTO 22004KT 10SM UP BKN027 OVC039 00/M01 A2970 RMK AO2 UPB41 P0000 FZRANO

TAF N/A
FIR PAZA / America del Nord



MetMap, La meteo Aeronautica in un colpo d'occhio ! - Copyright ORBIFLY Dicembre 2007 - Disclaimer

ORBIFLY MET'MAP TEAM :

Programmazione e sviluppo : Alexandra Zaïnal
Concezione : Baudouin d'Aumeries
Aiuto per la programmazione : Marc-Olivier Méhu
Supporto tecnico e logistico : Manuel Goepfert
Aiuto per la traduzione : Arnaldo La Scala

Contatto : metmap@orbifly.com




FONTI E CREDITI :

   NOAA       Earth
Advisory